createdAt,value
2022-12-18T00:02:35.622Z,44.30
2022-12-18T00:06:37.258Z,44.73
2022-12-18T00:10:38.185Z,31.17
2022-12-18T00:14:39.275Z,34.63
2022-12-18T00:18:43.191Z,35.30
2022-12-18T00:22:44.367Z,35.37
2022-12-18T00:26:45.519Z,30.70
2022-12-18T00:30:46.780Z,35.93
2022-12-18T00:34:47.866Z,31.60
2022-12-18T00:38:48.830Z,29.90
2022-12-18T00:42:56.146Z,29.93
2022-12-18T00:46:57.036Z,30.80
2022-12-18T00:50:58.345Z,33.20
2022-12-18T00:55:04.494Z,29.77
2022-12-18T00:59:02.222Z,35.97
2022-12-18T01:03:04.361Z,30.90
2022-12-18T01:07:05.618Z,33.90
2022-12-18T01:11:12.688Z,30.73
2022-12-18T01:15:14.959Z,31.33
2022-12-18T01:19:16.358Z,25.43
2022-12-18T01:23:18.407Z,26.70
2022-12-18T01:27:19.489Z,27.13
2022-12-18T01:31:23.421Z,27.27
2022-12-18T01:35:24.567Z,26.03
2022-12-18T01:39:25.644Z,26.93
2022-12-18T01:43:46.802Z,30.67
2022-12-18T01:47:54.890Z,29.30
2022-12-18T01:51:55.849Z,27.87
2022-12-18T01:55:58.070Z,26.40
2022-12-18T02:00:06.075Z,27.10
2022-12-18T02:04:26.076Z,26.80
2022-12-18T02:08:33.704Z,25.43
2022-12-18T02:12:38.493Z,26.37
2022-12-18T02:16:43.407Z,24.63
2022-12-18T02:20:48.265Z,24.13
2022-12-18T02:25:04.785Z,27.03
2022-12-18T02:29:12.515Z,27.43
2022-12-18T02:33:14.655Z,26.13
2022-12-18T02:37:18.657Z,26.07
2022-12-18T02:41:20.246Z,27.17
2022-12-18T02:45:21.371Z,27.53
2022-12-18T02:49:44.094Z,28.17
2022-12-18T02:54:05.554Z,29.53
2022-12-18T02:58:13.170Z,26.77
2022-12-18T03:02:24.325Z,29.93
2022-12-18T03:06:29.142Z,29.10
2022-12-18T03:10:33.790Z,29.83
2022-12-18T03:14:36.791Z,29.50
2022-12-18T03:18:44.790Z,30.10
2022-12-18T03:22:49.523Z,29.67
2022-12-18T03:26:57.462Z,29.33
2022-12-18T03:31:01.537Z,29.10
2022-12-18T03:35:05.495Z,28.67
2022-12-18T03:39:06.765Z,29.20
2022-12-18T03:43:11.682Z,29.30
2022-12-18T03:47:31.692Z,28.43
2022-12-18T03:51:51.393Z,27.40
2022-12-18T03:55:53.412Z,29.90
2022-12-18T04:00:01.501Z,26.87
2022-12-18T04:04:04.177Z,29.73
2022-12-18T04:08:05.757Z,34.03
2022-12-18T04:12:06.954Z,32.20
2022-12-18T04:16:09.835Z,32.77
2022-12-18T04:20:11.706Z,36.33
2022-12-18T04:24:12.862Z,34.27
2022-12-18T04:28:17.972Z,31.77
2022-12-18T04:32:21.760Z,33.77
2022-12-18T04:36:22.905Z,32.67
2022-12-18T04:40:26.025Z,35.40
2022-12-18T04:44:27.154Z,31.47
2022-12-18T04:48:29.099Z,34.80
2022-12-18T04:52:33.079Z,32.40
2022-12-18T04:56:35.063Z,31.17
2022-12-18T05:00:36.273Z,30.77
2022-12-18T05:04:38.322Z,32.77
2022-12-18T05:08:39.279Z,32.20
2022-12-18T05:12:42.334Z,30.50
2022-12-18T05:16:43.333Z,32.33
2022-12-18T05:20:45.169Z,34.70
2022-12-18T05:24:46.312Z,30.10
2022-12-18T05:28:47.553Z,33.57
2022-12-18T05:32:48.516Z,30.73
2022-12-18T05:36:49.646Z,32.43
2022-12-18T05:40:51.764Z,31.20
2022-12-18T05:44:52.782Z,31.77
2022-12-18T05:48:53.909Z,33.40
2022-12-18T05:52:54.891Z,35.83
2022-12-18T05:56:56.143Z,32.63
2022-12-18T06:00:58.003Z,33.17
2022-12-18T06:04:59.009Z,35.50
2022-12-18T06:09:01.748Z,43.50
2022-12-18T06:13:02.903Z,39.17
2022-12-18T06:17:04.079Z,35.23
2022-12-18T06:21:05.353Z,41.60
2022-12-18T06:25:07.575Z,40.00
2022-12-18T06:29:09.190Z,36.40
2022-12-18T06:33:10.396Z,34.80
2022-12-18T06:37:11.640Z,34.37
2022-12-18T06:41:15.508Z,36.43
2022-12-18T06:45:16.826Z,45.40
2022-12-18T06:49:20.366Z,32.57
2022-12-18T06:53:21.694Z,37.27
2022-12-18T06:57:22.675Z,32.90
2022-12-18T07:01:24.023Z,38.57
2022-12-18T07:05:25.308Z,35.53
2022-12-18T07:09:26.514Z,35.70
2022-12-18T07:13:27.907Z,37.77
2022-12-18T07:17:30.090Z,37.30
2022-12-18T07:21:31.293Z,38.47
2022-12-18T07:25:36.364Z,37.07
2022-12-18T07:29:37.551Z,40.23
2022-12-18T07:33:39.460Z,35.53
2022-12-18T07:37:40.868Z,36.60
2022-12-18T07:41:47.371Z,44.47
2022-12-18T07:45:51.053Z,36.97
2022-12-18T07:49:52.406Z,35.10
2022-12-18T07:53:53.528Z,48.63
2022-12-18T07:57:59.372Z,39.30
2022-12-18T08:01:57.769Z,44.47
2022-12-18T08:06:03.541Z,45.57
2022-12-18T08:10:05.293Z,33.47
2022-12-18T08:14:08.955Z,40.97
2022-12-18T08:18:14.401Z,34.17
2022-12-18T08:22:14.715Z,34.43
2022-12-18T08:26:16.507Z,34.97
2022-12-18T08:30:17.548Z,33.70
2022-12-18T08:34:18.939Z,27.83
2022-12-18T08:38:19.876Z,30.80
2022-12-18T08:42:39.132Z,33.80
2022-12-18T08:46:42.208Z,33.40
2022-12-18T08:50:43.347Z,31.77
2022-12-18T08:54:44.485Z,38.37
2022-12-18T08:58:45.651Z,30.97
2022-12-18T09:02:47.028Z,39.17
2022-12-18T09:06:48.385Z,28.87
2022-12-18T09:10:50.828Z,29.40
2022-12-18T09:14:52.082Z,29.60
2022-12-18T09:18:55.176Z,30.97
2022-12-18T09:22:56.331Z,28.30
2022-12-18T09:26:58.175Z,28.97
2022-12-18T09:30:59.516Z,27.50
2022-12-18T09:35:02.689Z,28.50
2022-12-18T09:39:08.273Z,28.27
2022-12-18T09:43:09.693Z,28.50
2022-12-18T09:47:17.249Z,25.57
2022-12-18T09:51:22.167Z,30.40
2022-12-18T09:55:37.628Z,25.70
2022-12-18T09:59:42.654Z,28.37
2022-12-18T10:03:43.708Z,26.77
2022-12-18T10:07:54.670Z,28.93
2022-12-18T10:12:11.912Z,28.80
2022-12-18T10:16:22.535Z,27.70
2022-12-18T10:20:27.511Z,31.10
2022-12-18T10:24:35.623Z,33.80
2022-12-18T10:28:39.524Z,29.03
2022-12-18T10:32:41.043Z,30.20
2022-12-18T10:36:43.364Z,29.90
2022-12-18T10:40:58.477Z,30.30
2022-12-18T10:45:09.087Z,34.63
2022-12-18T10:49:32.025Z,32.57
2022-12-18T10:53:36.527Z,34.63
2022-12-18T10:57:41.027Z,32.27
2022-12-18T11:02:00.114Z,35.57
2022-12-18T11:06:10.931Z,35.00
2022-12-18T11:10:15.741Z,39.07
2022-12-18T11:14:26.208Z,37.63
2022-12-18T11:18:30.939Z,40.47
2022-12-18T11:22:35.338Z,32.43
2022-12-18T11:26:37.435Z,41.10
2022-12-18T11:30:38.408Z,41.50
2022-12-18T11:34:42.498Z,38.93
2022-12-18T11:38:45.152Z,41.50
2022-12-18T11:42:52.663Z,39.70
2022-12-18T11:46:57.754Z,38.33
2022-12-18T11:51:02.796Z,40.80
2022-12-18T11:55:16.590Z,45.10
2022-12-18T11:59:33.625Z,43.07
2022-12-18T12:03:44.905Z,41.73
2022-12-18T12:07:53.083Z,38.60
2022-12-18T12:12:00.944Z,43.80
2022-12-18T12:16:20.592Z,41.10
2022-12-18T12:20:45.163Z,40.47
2022-12-18T12:25:23.027Z,39.10
2022-12-18T12:29:44.624Z,44.60
2022-12-18T12:33:52.563Z,44.90
2022-12-18T12:38:10.109Z,38.23
2022-12-18T12:43:00.446Z,40.93
2022-12-18T12:47:05.518Z,43.13
2022-12-18T12:51:23.416Z,44.60
2022-12-18T12:55:27.349Z,43.77
2022-12-18T12:59:35.008Z,46.43
2022-12-18T13:03:57.467Z,42.97
2022-12-18T13:08:07.519Z,39.10
2022-12-18T13:12:30.240Z,43.30
2022-12-18T13:16:33.944Z,42.93
2022-12-18T13:20:38.021Z,42.77
2022-12-18T13:24:39.237Z,47.80
2022-12-18T13:28:50.452Z,43.33
2022-12-18T13:33:11.914Z,42.67
2022-12-18T13:37:34.237Z,41.47
2022-12-18T13:41:35.411Z,45.90
2022-12-18T13:45:40.436Z,42.10
2022-12-18T13:49:44.208Z,41.20
2022-12-18T13:54:01.114Z,42.33
2022-12-18T13:58:06.853Z,41.83
2022-12-18T14:02:17.761Z,44.17
2022-12-18T14:06:19.262Z,40.63
2022-12-18T14:14:32.373Z,44.77
2022-12-18T14:19:04.116Z,44.50
2022-12-18T14:23:04.914Z,44.33
2022-12-18T14:27:24.533Z,41.57
2022-12-18T14:31:28.888Z,45.97
2022-12-18T14:35:33.297Z,51.30
2022-12-18T14:39:34.335Z,41.53
2022-12-18T14:43:37.571Z,45.77
2022-12-18T14:47:39.164Z,71.37
2022-12-18T14:51:44.700Z,41.73
2022-12-18T14:55:48.545Z,40.73
2022-12-18T14:59:50.546Z,42.37
2022-12-18T15:03:53.328Z,43.90
2022-12-18T15:07:56.668Z,40.43
2022-12-18T15:12:01.863Z,46.93
2022-12-18T15:16:03.790Z,46.47
2022-12-18T15:20:08.899Z,45.37
2022-12-18T15:24:19.676Z,41.53
2022-12-18T15:28:24.920Z,44.90
2022-12-18T15:32:26.131Z,44.37
2022-12-18T15:36:27.801Z,42.13
2022-12-18T15:40:30.932Z,43.07
2022-12-18T15:44:32.439Z,42.77
2022-12-18T15:48:35.955Z,44.90
2022-12-18T15:52:43.400Z,45.23
2022-12-18T15:57:02.785Z,53.13
2022-12-18T16:01:04.253Z,45.53
2022-12-18T16:05:17.508Z,46.87
2022-12-18T16:09:23.077Z,48.03
2022-12-18T16:13:22.355Z,57.25
2022-12-18T16:17:23.910Z,47.03
2022-12-18T16:21:28.216Z,54.27
2022-12-18T16:25:29.096Z,47.87
2022-12-18T16:29:30.480Z,54.00
2022-12-18T16:33:31.567Z,45.97
2022-12-18T16:37:32.811Z,41.37
2022-12-18T16:41:34.226Z,42.80
2022-12-18T16:45:35.318Z,40.10
2022-12-18T16:49:36.867Z,38.40
2022-12-18T16:53:38.284Z,35.77
2022-12-18T16:57:39.662Z,36.77
2022-12-18T17:01:41.163Z,38.73
2022-12-18T17:05:42.685Z,42.70
2022-12-18T17:09:45.724Z,40.10
2022-12-18T17:13:47.229Z,37.37
2022-12-18T17:17:48.502Z,39.07
2022-12-18T17:21:50.699Z,40.70
2022-12-18T17:25:54.968Z,37.23
2022-12-18T17:29:56.064Z,38.87
2022-12-18T17:33:57.814Z,40.97
2022-12-18T17:37:58.793Z,31.80
2022-12-18T17:41:59.900Z,40.40
2022-12-18T17:46:06.099Z,41.17
2022-12-18T17:50:09.541Z,39.73
2022-12-18T17:54:11.082Z,34.27
2022-12-18T17:58:13.124Z,37.57
2022-12-18T18:02:15.241Z,37.23
2022-12-18T18:06:17.850Z,43.10
2022-12-18T18:10:19.077Z,36.33
2022-12-18T18:14:20.671Z,38.80
2022-12-18T18:18:21.639Z,40.50
2022-12-18T18:22:24.538Z,57.47
2022-12-18T18:26:29.538Z,42.17
2022-12-18T18:30:31.403Z,37.73
2022-12-18T18:34:33.127Z,41.83
2022-12-18T18:38:34.211Z,44.57
2022-12-18T18:42:35.912Z,44.57
2022-12-18T18:46:37.078Z,53.28
2022-12-18T18:50:38.460Z,43.93
2022-12-18T18:54:51.949Z,40.93
2022-12-18T18:58:44.298Z,38.23
2022-12-18T19:02:45.608Z,39.40
2022-12-18T19:06:48.061Z,50.78
2022-12-18T19:10:57.792Z,44.87
2022-12-18T19:14:58.858Z,42.17
2022-12-18T19:19:01.957Z,49.53
2022-12-18T19:23:03.560Z,40.53
2022-12-18T19:27:04.593Z,42.53
2022-12-18T19:31:08.740Z,39.27
2022-12-18T19:35:10.514Z,42.90
2022-12-18T19:39:14.914Z,39.53
2022-12-18T19:43:16.917Z,53.17
2022-12-18T19:47:18.446Z,49.50
2022-12-18T19:51:22.779Z,41.20
2022-12-18T19:55:24.251Z,42.23
2022-12-18T19:59:25.261Z,40.07
2022-12-18T20:03:32.164Z,36.83
2022-12-18T20:07:30.264Z,39.57
2022-12-18T20:11:33.187Z,40.03
2022-12-18T20:15:40.466Z,40.57
2022-12-18T20:19:39.711Z,40.20
2022-12-18T20:23:55.542Z,41.60
2022-12-18T20:27:48.747Z,36.77
2022-12-18T20:31:51.160Z,40.63
2022-12-18T20:35:52.626Z,44.93
2022-12-18T20:39:54.565Z,40.27
2022-12-18T20:43:57.305Z,41.60
2022-12-18T20:48:00.452Z,41.43
2022-12-18T20:52:02.502Z,43.83
2022-12-18T20:56:10.458Z,38.40
2022-12-18T21:00:13.966Z,44.47
2022-12-18T21:04:19.706Z,43.13
2022-12-18T21:08:21.328Z,45.77
2022-12-18T21:12:40.329Z,41.73
2022-12-18T21:16:46.220Z,42.63
2022-12-18T21:20:48.151Z,42.83
2022-12-18T21:24:50.312Z,48.10
2022-12-18T21:28:56.483Z,43.87
2022-12-18T21:32:57.811Z,40.97
2022-12-18T21:37:00.710Z,40.00
2022-12-18T21:41:07.591Z,41.20
2022-12-18T21:45:10.518Z,44.10
2022-12-18T21:49:22.456Z,41.00
2022-12-18T21:53:23.775Z,44.33
2022-12-18T21:57:25.014Z,39.80
2022-12-18T22:01:26.319Z,40.97
2022-12-18T22:05:29.440Z,41.87
2022-12-18T22:09:30.901Z,40.10
2022-12-18T22:13:32.117Z,42.77
2022-12-18T22:17:33.236Z,38.53
2022-12-18T22:21:37.415Z,38.63
2022-12-18T22:25:39.839Z,39.07
2022-12-18T22:29:58.062Z,40.70
2022-12-18T22:33:59.208Z,38.13
2022-12-18T22:38:04.008Z,42.10
2022-12-18T22:42:05.724Z,40.13
2022-12-18T22:46:11.167Z,38.10
2022-12-18T22:50:15.335Z,40.07
2022-12-18T22:54:16.572Z,39.90
2022-12-18T22:58:19.493Z,41.60
2022-12-18T23:02:20.867Z,39.57
2022-12-18T23:06:24.598Z,35.63
2022-12-18T23:10:25.879Z,42.70
2022-12-18T23:14:28.009Z,40.50
2022-12-18T23:18:29.159Z,41.40
2022-12-18T23:22:30.456Z,38.67
2022-12-18T23:26:34.602Z,41.53
2022-12-18T23:30:36.533Z,40.17
2022-12-18T23:39:03.981Z,40.00
2022-12-18T23:43:07.102Z,39.40
2022-12-18T23:47:08.500Z,39.40
2022-12-18T23:51:11.358Z,38.70
2022-12-18T23:55:12.504Z,40.17
2022-12-18T23:59:13.967Z,39.50
